Adventure of The Seas — C6SA3 — position and weather

sailwx.info

Track history (hours):
 
Tides and Currents Weather Stations Pressure Air Temp Water Temp Dewpoint Dewpoint Depression Visibility Wind Speed Wind Dir Waves Ship Positions

Adventure of The Seas

Operator: Royal Caribbean Cruises Ltd

Last reported at 2016-Nov-28 08:05 UTC. Time now 2016-Dec-03 19:41 UTC.
Position N 17°36' W 063°07'.

Type: Passenger vessel. MMSI: 311263000.

Date/timePositionNaut miles runAvg speedWind from/ knotsBaromVisibWave heightAir tempDewpointWater temp
2016-Nov-28 08:05N 17°36' W 063°07'610.6
2016-Nov-28 07:32N 17°42' W 063°09'10011.0
2016-Nov-27 22:29N 18°12' W 064°49'8 0.2
2016-Nov-26 03:15N 18°12' W 064°57'  
2016-Nov-23 02:33N 16°18' W 062°05'3115.6
2016-Nov-23 00:33N 16°49' W 062°03'1515.2
2016-Nov-22 23:33N 17°04' W 062°01'8 8.3
2016-Nov-22 22:33N 17°08' W 061°53'3 1.3
2016-Nov-22 20:33N 17°07' W 061°51'0 0.0
2016-Nov-22 19:33N 17°07' W 061°51'0 0.0
2016-Nov-22 17:33N 17°07' W 061°51'0 0.0
2016-Nov-22 16:33N 17°07' W 061°51'0 0.0
2016-Nov-22 15:33N 17°07' W 061°51'0 0.0
2016-Nov-22 14:33N 17°07' W 061°51'0 0.0
2016-Nov-22 13:33N 17°07' W 061°51'9 2.9
2016-Nov-22 10:34N 17°11' W 061°59'8 8.2
2016-Nov-22 09:33N 17°14' W 062°07'8 7.7
2016-Nov-22 08:33N 17°21' W 062°10'8 7.6
2016-Nov-22 07:33N 17°29' W 062°12'13 6.6
2016-Nov-22 05:33N 17°34' W 062°24'8 7.9
2016-Nov-22 04:33N 17°33' W 062°32'35 1.2
2016-Nov-21 00:16N 17°42' W 063°07'12 7.2
2016-Nov-20 22:32N 17°55' W 063°06'29 2.2
2016-Nov-20 09:31N 18°04' W 063°35'7218.1
2016-Nov-20 05:33N 18°12' W 064°50'5 0.2
2016-Nov-19 04:24N 18°12' W 064°55'7619.0
2016-Nov-19 00:25N 18°04' W 063°36'1719.0
2016-Nov-18 23:30N 18°02' W 063°18'14 1.3
2016-Nov-18 12:24N 18°01' W 063°03'1213.3
2016-Nov-18 11:30N 17°49' W 063°07'  
Track history (hours):
 
Tides and Currents Weather Stations Pressure Air Temp Water Temp Dewpoint Dewpoint Depression Visibility Wind Speed Wind Dir Waves Ship Positions

Adventure of The Seas

Operator: Royal Caribbean Cruises Ltd

Last reported at 2016-Nov-28 08:05 UTC. Time now 2016-Dec-03 19:41 UTC.
Position N 17°36' W 063°07'.

Type: Passenger vessel. MMSI: 311263000.

Date/timePositionNaut miles runAvg speedWind from/ knotsBaromVisibWave heightAir tempDewpointWater temp
2016-Nov-28 08:05N 17°36' W 063°07'610.6
2016-Nov-28 07:32N 17°42' W 063°09'10011.0
2016-Nov-27 22:29N 18°12' W 064°49'8 0.2
2016-Nov-26 03:15N 18°12' W 064°57'  
2016-Nov-23 02:33N 16°18' W 062°05'3115.6
2016-Nov-23 00:33N 16°49' W 062°03'1515.2
2016-Nov-22 23:33N 17°04' W 062°01'8 8.3
2016-Nov-22 22:33N 17°08' W 061°53'3 1.3
2016-Nov-22 20:33N 17°07' W 061°51'0 0.0
2016-Nov-22 19:33N 17°07' W 061°51'0 0.0
2016-Nov-22 17:33N 17°07' W 061°51'0 0.0
2016-Nov-22 16:33N 17°07' W 061°51'0 0.0
2016-Nov-22 15:33N 17°07' W 061°51'0 0.0
2016-Nov-22 14:33N 17°07' W 061°51'0 0.0
2016-Nov-22 13:33N 17°07' W 061°51'9 2.9
2016-Nov-22 10:34N 17°11' W 061°59'8 8.2
2016-Nov-22 09:33N 17°14' W 062°07'8 7.7
2016-Nov-22 08:33N 17°21' W 062°10'8 7.6
2016-Nov-22 07:33N 17°29' W 062°12'13 6.6
2016-Nov-22 05:33N 17°34' W 062°24'8 7.9
2016-Nov-22 04:33N 17°33' W 062°32'35 1.2
2016-Nov-21 00:16N 17°42' W 063°07'12 7.2
2016-Nov-20 22:32N 17°55' W 063°06'29 2.2
2016-Nov-20 09:31N 18°04' W 063°35'7218.1
2016-Nov-20 05:33N 18°12' W 064°50'5 0.2
2016-Nov-19 04:24N 18°12' W 064°55'7619.0
2016-Nov-19 00:25N 18°04' W 063°36'1719.0
2016-Nov-18 23:30N 18°02' W 063°18'14 1.3
2016-Nov-18 12:24N 18°01' W 063°03'1213.3
2016-Nov-18 11:30N 17°49' W 063°07'  

Dump ship's entire track history